KLM744 SPJC-EHAM
Flight info
| Callsign | KLM744 |
|---|---|
| Flight time | N/A |
| Altitude | 31000 |
| Route | AMVEX UM414 MAJAZ/N0501F330 UM414 ILMUX/N0501F320 UM414 SILIK/N0497F340 UM414 KIKER/N0493F330 DCT DAWIN/M083F350 DCT FOORE DCT 27N057W 34N050W 38N045W 41N040W 46N030W 49N020W DCT BEDRA DCT NASBA DCT LULOX/N0474F350 DCT BAPHU DCT GAJIT DCT ENHAQ M197 REDFA |
| Aircraft | B77W/H-SDE1E2E3FGHIJ2J3J4J5M1RWXY/LB1D1 |
Departure
| Time | 2026-05-05 22:50 |
|---|---|
| Airport | Jorge Chávez International Airport (SPJC) |
Arrival
| Time | N/A |
|---|---|
| Airport | Amsterdam Airport Schiphol (EHAM) |
| Time | Latitude | Longitude | Altitude | Speed | Heading |
|---|---|---|---|---|---|
| 2026-05-05 22:25 | -12.02935 | -77.11924 | 84 ft | 0 kts | 154° |
| 2026-05-05 22:36 | -12.02915 | -77.11935 | 88 ft | 4 kts | 150° |
| 2026-05-05 22:36 | -12.02892 | -77.11950 | 88 ft | 4 kts | 140° |
| 2026-05-05 22:36 | -12.02874 | -77.11968 | 87 ft | 4 kts | 121° |
| 2026-05-05 22:36 | -12.02866 | -77.11986 | 86 ft | 5 kts | 85° |
| 2026-05-05 22:37 | -12.02868 | -77.11996 | 85 ft | 2 kts | 64° |
| 2026-05-05 22:37 | -12.02867 | -77.11996 | 85 ft | 0 kts | 64° |
| 2026-05-05 22:39 | -12.02865 | -77.11992 | 80 ft | 3 kts | 64° |
| 2026-05-05 22:39 | -12.02848 | -77.11955 | 86 ft | 9 kts | 64° |
| 2026-05-05 22:39 | -12.02780 | -77.11921 | 88 ft | 16 kts | 344° |
| 2026-05-05 22:39 | -12.02671 | -77.11976 | 87 ft | 17 kts | 332° |
| 2026-05-05 22:40 | -12.02583 | -77.12020 | 88 ft | 12 kts | 335° |
| 2026-05-05 22:40 | -12.02511 | -77.12055 | 89 ft | 6 kts | 334° |
| 2026-05-05 22:40 | -12.02502 | -77.12086 | 86 ft | 6 kts | 236° |
| 2026-05-05 22:40 | -12.02544 | -77.12117 | 69 ft | 12 kts | 212° |
| 2026-05-05 22:41 | -12.02552 | -77.12192 | 64 ft | 14 kts | 319° |
| 2026-05-05 22:41 | -12.02465 | -77.12236 | 62 ft | 14 kts | 337° |
| 2026-05-05 22:41 | -12.02375 | -77.12280 | 57 ft | 16 kts | 333° |
| 2026-05-05 22:41 | -12.02269 | -77.12334 | 50 ft | 18 kts | 334° |
| 2026-05-05 22:42 | -12.02164 | -77.12386 | 50 ft | 14 kts | 334° |
| 2026-05-05 22:42 | -12.02088 | -77.12360 | 51 ft | 13 kts | 58° |
| 2026-05-05 22:42 | -12.02047 | -77.12275 | 54 ft | 13 kts | 64° |
| 2026-05-05 22:42 | -12.02007 | -77.12190 | 54 ft | 13 kts | 64° |
| 2026-05-05 22:43 | -12.01968 | -77.12105 | 61 ft | 13 kts | 65° |
| 2026-05-05 22:43 | -12.01927 | -77.12020 | 57 ft | 13 kts | 63° |
| 2026-05-05 22:43 | -12.01885 | -77.11936 | 61 ft | 13 kts | 63° |
| 2026-05-05 22:43 | -12.01845 | -77.11851 | 62 ft | 13 kts | 64° |
| 2026-05-05 22:44 | -12.01780 | -77.11809 | 65 ft | 12 kts | 346° |
| 2026-05-05 22:44 | -12.01702 | -77.11847 | 63 ft | 12 kts | 333° |
| 2026-05-05 22:44 | -12.01625 | -77.11888 | 62 ft | 12 kts | 333° |
| 2026-05-05 22:44 | -12.01548 | -77.11927 | 65 ft | 12 kts | 334° |
| 2026-05-05 22:45 | -12.01470 | -77.11965 | 58 ft | 12 kts | 334° |
| 2026-05-05 22:45 | -12.01393 | -77.12003 | 57 ft | 12 kts | 334° |
| 2026-05-05 22:45 | -12.01318 | -77.12041 | 57 ft | 12 kts | 334° |
| 2026-05-05 22:45 | -12.01258 | -77.12100 | 59 ft | 12 kts | 308° |
| 2026-05-05 22:46 | -12.01201 | -77.12163 | 53 ft | 13 kts | 323° |
| 2026-05-05 22:46 | -12.01124 | -77.12205 | 54 ft | 13 kts | 335° |
| 2026-05-05 22:46 | -12.01044 | -77.12242 | 50 ft | 13 kts | 335° |
| 2026-05-05 22:46 | -12.00965 | -77.12279 | 53 ft | 13 kts | 335° |
| 2026-05-05 22:47 | -12.00916 | -77.12302 | 52 ft | 0 kts | 335° |
| 2026-05-05 22:48 | -12.00912 | -77.12304 | 48 ft | 2 kts | 336° |
| 2026-05-05 22:48 | -12.00881 | -77.12307 | 49 ft | 7 kts | 8° |
| 2026-05-05 22:48 | -12.00840 | -77.12268 | 50 ft | 10 kts | 59° |
| 2026-05-05 22:48 | -12.00803 | -77.12190 | 50 ft | 12 kts | 64° |
| 2026-05-05 22:49 | -12.00801 | -77.12127 | 49 ft | 8 kts | 124° |
| 2026-05-05 22:49 | -12.00834 | -77.12101 | 51 ft | 0 kts | 151° |
| 2026-05-05 22:49 | -12.00838 | -77.12100 | 51 ft | 5 kts | 151° |
| 2026-05-05 22:49 | -12.01045 | -77.11996 | 54 ft | 70 kts | 154° |
| 2026-05-05 22:50 | -12.01705 | -77.11671 | 65 ft | 139 kts | 154° |
| 2026-05-05 22:50 | -12.02760 | -77.11155 | 103 ft | 194 kts | 153° |
| 2026-05-05 22:50 | -12.04038 | -77.10522 | 372 ft | 206 kts | 153° |
| 2026-05-05 22:50 | -12.05296 | -77.09890 | 1122 ft | 201 kts | 155° |
| 2026-05-05 22:51 | -12.06594 | -77.09245 | 1476 ft | 216 kts | 154° |
| 2026-05-05 22:51 | -12.07996 | -77.08533 | 1752 ft | 230 kts | 153° |
| 2026-05-05 22:51 | -12.09487 | -77.07752 | 1939 ft | 254 kts | 152° |
| 2026-05-05 22:51 | -12.11111 | -77.06915 | 2392 ft | 263 kts | 153° |
| 2026-05-05 22:52 | -12.12750 | -77.06048 | 3007 ft | 269 kts | 152° |
| 2026-05-05 22:52 | -12.14343 | -77.05057 | 3639 ft | 268 kts | 138° |
| 2026-05-05 22:52 | -12.15438 | -77.03514 | 4136 ft | 274 kts | 106° |
| 2026-05-05 22:52 | -12.15568 | -77.01593 | 4707 ft | 274 kts | 75° |
| 2026-05-05 22:53 | -12.14777 | -76.99832 | 5219 ft | 277 kts | 50° |
| 2026-05-05 22:53 | -12.13497 | -76.98364 | 5810 ft | 278 kts | 45° |
| 2026-05-05 22:53 | -12.12143 | -76.96931 | 6404 ft | 283 kts | 44° |
| 2026-05-05 22:53 | -12.10748 | -76.95510 | 7055 ft | 282 kts | 44° |
| 2026-05-05 22:54 | -12.09366 | -76.94064 | 7606 ft | 287 kts | 45° |
| 2026-05-05 22:54 | -12.07942 | -76.92569 | 7972 ft | 300 kts | 45° |
| 2026-05-05 22:54 | -12.06480 | -76.91041 | 8622 ft | 296 kts | 44° |
| 2026-05-05 22:54 | -12.04869 | -76.89769 | 9298 ft | 295 kts | 25° |
| 2026-05-05 22:55 | -12.02902 | -76.89248 | 9835 ft | 294 kts | 358° |
| 2026-05-05 22:55 | -12.00893 | -76.89578 | 10347 ft | 293 kts | 343° |
| 2026-05-05 22:55 | -11.98938 | -76.90285 | 10646 ft | 306 kts | 338° |
| 2026-05-05 22:55 | -11.96892 | -76.91106 | 10790 ft | 325 kts | 338° |
| 2026-05-05 22:56 | -11.94727 | -76.91973 | 10936 ft | 344 kts | 339° |
| 2026-05-05 22:56 | -11.92422 | -76.92852 | 11083 ft | 363 kts | 339° |
| 2026-05-05 22:56 | -11.89995 | -76.93766 | 11327 ft | 378 kts | 339° |
| 2026-05-05 22:56 | -11.87499 | -76.94705 | 11786 ft | 386 kts | 339° |
| 2026-05-05 22:57 | -11.84952 | -76.95650 | 11950 ft | 393 kts | 341° |
| 2026-05-05 22:57 | -11.82308 | -76.96411 | 12327 ft | 397 kts | 346° |
| 2026-05-05 22:57 | -11.79622 | -76.97086 | 13038 ft | 398 kts | 346° |
| 2026-05-05 22:57 | -11.76925 | -76.97752 | 13705 ft | 400 kts | 346° |
| 2026-05-05 22:58 | -11.74202 | -76.98429 | 14253 ft | 404 kts | 346° |
| 2026-05-05 22:58 | -11.71463 | -76.99118 | 14807 ft | 407 kts | 347° |
| 2026-05-05 22:58 | -11.68705 | -76.99818 | 15402 ft | 409 kts | 347° |
| 2026-05-05 22:58 | -11.65935 | -77.00525 | 15984 ft | 412 kts | 347° |
| 2026-05-05 22:59 | -11.63143 | -77.01239 | 16546 ft | 415 kts | 347° |
| 2026-05-05 22:59 | -11.60333 | -77.01958 | 17108 ft | 418 kts | 348° |
| 2026-05-05 22:59 | -11.57501 | -77.02683 | 17643 ft | 421 kts | 348° |
| 2026-05-05 22:59 | -11.54644 | -77.03413 | 18197 ft | 424 kts | 348° |
| 2026-05-05 23:00 | -11.48880 | -77.04887 | 19121 ft | 431 kts | 348° |
| 2026-05-05 23:00 | -11.45999 | -77.05623 | 19537 ft | 434 kts | 348° |
| 2026-05-05 23:00 | -11.43016 | -77.06385 | 19981 ft | 438 kts | 348° |
| 2026-05-05 23:01 | -11.40090 | -77.07131 | 20415 ft | 441 kts | 347° |
| 2026-05-05 23:01 | -11.37104 | -77.07878 | 20822 ft | 441 kts | 350° |
| 2026-05-05 23:01 | -11.34040 | -77.08143 | 21108 ft | 445 kts | 5° |
| 2026-05-05 23:01 | -11.30999 | -77.07596 | 21498 ft | 445 kts | 19° |
| 2026-05-05 23:02 | -11.28164 | -77.06356 | 21892 ft | 443 kts | 29° |
| 2026-05-05 23:02 | -11.25439 | -77.04842 | 22174 ft | 449 kts | 30° |
| 2026-05-05 23:02 | -11.22687 | -77.03307 | 22537 ft | 453 kts | 30° |
| 2026-05-05 23:02 | -11.19907 | -77.01767 | 22969 ft | 456 kts | 29° |
| 2026-05-05 23:03 | -11.17106 | -77.00231 | 23387 ft | 459 kts | 29° |
| 2026-05-05 23:03 | -11.14280 | -76.98695 | 23707 ft | 462 kts | 29° |
| 2026-05-05 23:03 | -11.11432 | -76.97156 | 24073 ft | 464 kts | 29° |
| 2026-05-05 23:03 | -11.08577 | -76.95619 | 24477 ft | 464 kts | 28° |
| 2026-05-05 23:04 | -11.05721 | -76.94082 | 24863 ft | 465 kts | 28° |
| 2026-05-05 23:04 | -11.02857 | -76.92541 | 25224 ft | 467 kts | 28° |
| 2026-05-05 23:04 | -10.99993 | -76.91000 | 25559 ft | 469 kts | 28° |
| 2026-05-05 23:04 | -10.97091 | -76.89440 | 25902 ft | 470 kts | 28° |
| 2026-05-05 23:05 | -10.94193 | -76.87880 | 26252 ft | 472 kts | 28° |
| 2026-05-05 23:05 | -10.91288 | -76.86317 | 26586 ft | 473 kts | 28° |
| 2026-05-05 23:05 | -10.88372 | -76.84749 | 26921 ft | 475 kts | 28° |
| 2026-05-05 23:05 | -10.85450 | -76.83178 | 27221 ft | 476 kts | 28° |
| 2026-05-05 23:06 | -10.82516 | -76.81600 | 27495 ft | 479 kts | 28° |
| 2026-05-05 23:06 | -10.79562 | -76.80012 | 27778 ft | 481 kts | 28° |
| 2026-05-05 23:06 | -10.76597 | -76.78426 | 28066 ft | 482 kts | 28° |
| 2026-05-05 23:06 | -10.73625 | -76.76844 | 28377 ft | 483 kts | 28° |
| 2026-05-05 23:07 | -10.70641 | -76.75258 | 28651 ft | 485 kts | 28° |
| 2026-05-05 23:07 | -10.67643 | -76.73665 | 28920 ft | 487 kts | 28° |
| 2026-05-05 23:07 | -10.64642 | -76.72069 | 29146 ft | 488 kts | 28° |
| 2026-05-05 23:07 | -10.61626 | -76.70464 | 29416 ft | 489 kts | 28° |
| 2026-05-05 23:08 | -10.58612 | -76.68860 | 29744 ft | 489 kts | 28° |
| 2026-05-05 23:08 | -10.55608 | -76.67261 | 30094 ft | 487 kts | 28° |
| 2026-05-05 23:08 | -10.52608 | -76.65665 | 30467 ft | 485 kts | 28° |
| 2026-05-05 23:08 | -10.49626 | -76.64078 | 30774 ft | 484 kts | 28° |
| 2026-05-05 23:09 | -10.46656 | -76.62498 | 31045 ft | 484 kts | 28° |
| 2026-05-05 23:09 | -10.43665 | -76.60907 | 31101 ft | 487 kts | 28° |
| 2026-05-05 23:09 | -10.37667 | -76.57719 | 31170 ft | 485 kts | 28° |
| 2026-05-05 23:10 | -10.31701 | -76.54551 | 31165 ft | 483 kts | 28° |
| 2026-05-05 23:10 | -10.25757 | -76.51394 | 31162 ft | 482 kts | 28° |
| 2026-05-05 23:11 | -10.19818 | -76.48240 | 31161 ft | 482 kts | 28° |
| 2026-05-05 23:11 | -10.13908 | -76.45103 | 31155 ft | 483 kts | 28° |
| 2026-05-05 23:12 | -10.07943 | -76.41939 | 31146 ft | 484 kts | 28° |
| 2026-05-05 23:12 | -10.01967 | -76.38771 | 31146 ft | 485 kts | 28° |
| 2026-05-05 23:13 | -9.95972 | -76.35594 | 31138 ft | 486 kts | 28° |
| 2026-05-05 23:13 | -9.89972 | -76.32415 | 31137 ft | 487 kts | 28° |
| 2026-05-05 23:14 | -9.83963 | -76.29233 | 31131 ft | 487 kts | 28° |
| 2026-05-05 23:14 | -9.77952 | -76.26052 | 31132 ft | 487 kts | 28° |
| 2026-05-05 23:15 | -9.71944 | -76.22873 | 31136 ft | 487 kts | 28° |
| 2026-05-05 23:15 | -9.65936 | -76.19694 | 31126 ft | 487 kts | 28° |
| 2026-05-05 23:16 | -9.59926 | -76.16517 | 31118 ft | 487 kts | 28° |
| 2026-05-05 23:16 | -9.53918 | -76.13343 | 31090 ft | 488 kts | 28° |
| 2026-05-05 23:17 | -9.47897 | -76.10161 | 31060 ft | 488 kts | 27° |
| 2026-05-05 23:17 | -9.41878 | -76.06982 | 31030 ft | 488 kts | 27° |
| 2026-05-05 23:18 | -9.35862 | -76.03806 | 31020 ft | 487 kts | 27° |
| 2026-05-05 23:18 | -9.29851 | -76.00634 | 31006 ft | 487 kts | 27° |
| 2026-05-05 23:19 | -9.23790 | -75.97560 | 30984 ft | 487 kts | 26° |
| 2026-05-05 23:19 | -9.17690 | -75.94573 | 30972 ft | 487 kts | 26° |
| 2026-05-05 23:20 | -9.11592 | -75.91581 | 30966 ft | 487 kts | 26° |
| 2026-05-05 23:20 | -9.05509 | -75.88579 | 30951 ft | 486 kts | 26° |
| 2026-05-05 23:21 | -8.99437 | -75.85573 | 30954 ft | 486 kts | 26° |
| 2026-05-05 23:21 | -8.93360 | -75.82566 | 30950 ft | 486 kts | 26° |
| 2026-05-05 23:22 | -8.87285 | -75.79562 | 30948 ft | 486 kts | 26° |
| 2026-05-05 23:22 | -8.81211 | -75.76561 | 30939 ft | 486 kts | 26° |
| 2026-05-05 23:23 | -8.75139 | -75.73561 | 30945 ft | 486 kts | 26° |
| 2026-05-05 23:23 | -8.69068 | -75.70562 | 30941 ft | 486 kts | 26° |
| 2026-05-05 23:24 | -8.62994 | -75.67564 | 30937 ft | 486 kts | 26° |
| 2026-05-05 23:24 | -8.56925 | -75.64569 | 30931 ft | 486 kts | 26° |
| 2026-05-05 23:25 | -8.50854 | -75.61574 | 30923 ft | 485 kts | 26° |
| 2026-05-05 23:25 | -8.44786 | -75.58583 | 30919 ft | 485 kts | 26° |
| 2026-05-05 23:26 | -8.38721 | -75.55592 | 30917 ft | 485 kts | 26° |
| 2026-05-05 23:26 | -8.32702 | -75.52627 | 30910 ft | 484 kts | 26° |
| 2026-05-05 23:27 | -8.26608 | -75.49625 | 30906 ft | 484 kts | 26° |
| 2026-05-05 23:27 | -8.20603 | -75.46667 | 30904 ft | 483 kts | 26° |
| 2026-05-05 23:28 | -8.14562 | -75.43693 | 30903 ft | 483 kts | 26° |
| 2026-05-05 23:28 | -8.08526 | -75.40723 | 30899 ft | 483 kts | 26° |
| 2026-05-05 23:29 | -8.02495 | -75.37756 | 30902 ft | 482 kts | 26° |
| 2026-05-05 23:29 | -7.96461 | -75.34788 | 30898 ft | 482 kts | 26° |
| 2026-05-05 23:30 | -7.91408 | -75.32304 | 30897 ft | 482 kts | 26° |
| 2026-05-05 23:30 | -7.84397 | -75.28858 | 30900 ft | 482 kts | 26° |
| 2026-05-05 23:31 | -7.79344 | -75.26374 | 30897 ft | 482 kts | 26° |
| 2026-05-05 23:31 | -7.73320 | -75.23415 | 30900 ft | 482 kts | 26° |
| 2026-05-05 23:32 | -7.67292 | -75.20460 | 30897 ft | 481 kts | 26° |
| 2026-05-05 23:32 | -7.61266 | -75.17508 | 30897 ft | 481 kts | 26° |
| 2026-05-05 23:33 | -7.55287 | -75.14578 | 30897 ft | 481 kts | 26° |
| 2026-05-05 23:33 | -7.49267 | -75.11628 | 30902 ft | 481 kts | 26° |
| 2026-05-05 23:34 | -7.43245 | -75.08679 | 30904 ft | 481 kts | 26° |
| 2026-05-05 23:34 | -7.37228 | -75.05734 | 30907 ft | 480 kts | 26° |
| 2026-05-05 23:35 | -7.31239 | -75.02804 | 30897 ft | 477 kts | 26° |
| 2026-05-05 23:35 | -7.25273 | -74.99884 | 30899 ft | 476 kts | 26° |
| 2026-05-05 23:36 | -7.19324 | -74.96974 | 30898 ft | 475 kts | 26° |
| 2026-05-05 23:36 | -7.13383 | -74.94067 | 30911 ft | 475 kts | 26° |
| 2026-05-05 23:37 | -7.07422 | -74.91152 | 30910 ft | 477 kts | 26° |
| 2026-05-05 23:37 | -7.01445 | -74.88230 | 30909 ft | 478 kts | 26° |
| 2026-05-05 23:38 | -6.95450 | -74.85301 | 30908 ft | 479 kts | 26° |
| 2026-05-05 23:38 | -6.89448 | -74.82369 | 30908 ft | 480 kts | 26° |
| 2026-05-05 23:39 | -6.83439 | -74.79433 | 30910 ft | 480 kts | 26° |
| 2026-05-05 23:39 | -6.77424 | -74.76496 | 30907 ft | 480 kts | 26° |
| 2026-05-05 23:40 | -6.71412 | -74.73561 | 30910 ft | 480 kts | 26° |
| 2026-05-05 23:40 | -6.65406 | -74.70630 | 30913 ft | 480 kts | 26° |
| 2026-05-05 23:41 | -6.59401 | -74.67700 | 30912 ft | 479 kts | 26° |
| 2026-05-05 23:41 | -6.53445 | -74.64795 | 30912 ft | 479 kts | 26° |
| 2026-05-05 23:42 | -6.47448 | -74.61871 | 30914 ft | 479 kts | 26° |
| 2026-05-05 23:42 | -6.41454 | -74.58949 | 30919 ft | 479 kts | 26° |
| 2026-05-05 23:43 | -6.35465 | -74.56030 | 30914 ft | 479 kts | 26° |
| 2026-05-05 23:43 | -6.29465 | -74.53107 | 30918 ft | 479 kts | 26° |
| 2026-05-05 23:44 | -6.23467 | -74.50185 | 30920 ft | 479 kts | 26° |
| 2026-05-05 23:44 | -6.17457 | -74.47258 | 30921 ft | 480 kts | 26° |
| 2026-05-05 23:45 | -6.11447 | -74.44332 | 30921 ft | 480 kts | 26° |
| 2026-05-05 23:45 | -6.05433 | -74.41404 | 30925 ft | 481 kts | 26° |
| 2026-05-05 23:46 | -5.99413 | -74.38475 | 30925 ft | 481 kts | 26° |
| 2026-05-05 23:46 | -5.93392 | -74.35546 | 30922 ft | 481 kts | 26° |
| 2026-05-05 23:47 | -5.87369 | -74.32616 | 30923 ft | 481 kts | 26° |
| 2026-05-05 23:47 | -5.81365 | -74.29697 | 30927 ft | 480 kts | 26° |
| 2026-05-05 23:48 | -5.75340 | -74.26767 | 30923 ft | 480 kts | 26° |
| 2026-05-05 23:48 | -5.69335 | -74.23849 | 30923 ft | 479 kts | 26° |
| 2026-05-05 23:49 | -5.63327 | -74.20929 | 30922 ft | 479 kts | 26° |
| 2026-05-05 23:49 | -5.57327 | -74.18014 | 30925 ft | 479 kts | 26° |
| 2026-05-05 23:50 | -5.51322 | -74.15098 | 30923 ft | 479 kts | 26° |
| 2026-05-05 23:50 | -5.45314 | -74.12180 | 30921 ft | 480 kts | 26° |
| 2026-05-05 23:51 | -5.39303 | -74.09262 | 30921 ft | 480 kts | 26° |
| 2026-05-05 23:51 | -5.33284 | -74.06340 | 30921 ft | 480 kts | 26° |
| 2026-05-05 23:52 | -5.27268 | -74.03420 | 30922 ft | 481 kts | 26° |
| 2026-05-05 23:52 | -5.21242 | -74.00497 | 30922 ft | 481 kts | 26° |
| 2026-05-05 23:53 | -5.15211 | -73.97572 | 30922 ft | 481 kts | 26° |
| 2026-05-05 23:53 | -5.09178 | -73.94646 | 30922 ft | 482 kts | 26° |
| 2026-05-05 23:54 | -5.03145 | -73.91720 | 30920 ft | 482 kts | 26° |
| 2026-05-05 23:54 | -4.97104 | -73.88792 | 30918 ft | 482 kts | 26° |
| 2026-05-05 23:55 | -4.91068 | -73.85867 | 30915 ft | 482 kts | 26° |
| 2026-05-05 23:55 | -4.85024 | -73.82937 | 30917 ft | 482 kts | 26° |
| 2026-05-05 23:56 | -4.79020 | -73.80028 | 30918 ft | 482 kts | 26° |
| 2026-05-05 23:56 | -4.72980 | -73.77102 | 30914 ft | 482 kts | 26° |
| 2026-05-05 23:57 | -4.66929 | -73.74172 | 30910 ft | 483 kts | 26° |
| 2026-05-05 23:57 | -4.60881 | -73.71243 | 30913 ft | 483 kts | 26° |
| 2026-05-05 23:58 | -4.54829 | -73.68312 | 30913 ft | 483 kts | 26° |
| 2026-05-05 23:58 | -4.48776 | -73.65385 | 30916 ft | 483 kts | 26° |
| 2026-05-05 23:59 | -4.42719 | -73.62456 | 30914 ft | 483 kts | 26° |
| 2026-05-05 23:59 | -4.36658 | -73.59524 | 30915 ft | 484 kts | 26° |
| 2026-05-06 00:00 | -4.30597 | -73.56593 | 30912 ft | 484 kts | 26° |
| 2026-05-06 00:00 | -4.24538 | -73.53663 | 30914 ft | 484 kts | 26° |
| 2026-05-06 00:01 | -4.18463 | -73.50726 | 30909 ft | 484 kts | 26° |
| 2026-05-06 00:01 | -4.12396 | -73.47793 | 30911 ft | 485 kts | 26° |
| 2026-05-06 00:02 | -4.06319 | -73.44856 | 30915 ft | 485 kts | 26° |
| 2026-05-06 00:02 | -4.00245 | -73.41920 | 30922 ft | 485 kts | 26° |
| 2026-05-06 00:03 | -3.94155 | -73.38978 | 30929 ft | 486 kts | 26° |
| 2026-05-06 00:03 | -3.88069 | -73.36037 | 30940 ft | 486 kts | 26° |
| 2026-05-06 00:04 | -3.81982 | -73.33096 | 30938 ft | 486 kts | 26° |
| 2026-05-06 00:04 | -3.75757 | -73.30463 | 30943 ft | 486 kts | 20° |
| 2026-05-06 00:05 | -3.66159 | -73.27135 | 30936 ft | 487 kts | 20° |
| 2026-05-06 00:06 | -3.59756 | -73.24900 | 30937 ft | 487 kts | 20° |
| 2026-05-06 00:06 | -3.53408 | -73.22661 | 30936 ft | 487 kts | 20° |
| 2026-05-06 00:07 | -3.47015 | -73.20401 | 30935 ft | 487 kts | 20° |
| 2026-05-06 00:07 | -3.40621 | -73.18142 | 30937 ft | 487 kts | 20° |
| 2026-05-06 00:08 | -3.34224 | -73.15884 | 30936 ft | 487 kts | 20° |
| 2026-05-06 00:08 | -3.27915 | -73.13657 | 30932 ft | 487 kts | 21° |
| 2026-05-06 00:09 | -3.21520 | -73.11400 | 30933 ft | 487 kts | 21° |
| 2026-05-06 00:09 | -3.15129 | -73.09145 | 30934 ft | 487 kts | 21° |
| 2026-05-06 00:10 | -3.08739 | -73.06890 | 30935 ft | 487 kts | 21° |
| 2026-05-06 00:10 | -3.02350 | -73.04635 | 30944 ft | 487 kts | 21° |
| 2026-05-06 00:11 | -2.95960 | -73.02381 | 30944 ft | 487 kts | 20° |
| 2026-05-06 00:11 | -2.89564 | -73.00130 | 30945 ft | 487 kts | 20° |
| 2026-05-06 00:12 | -2.83169 | -72.97885 | 30943 ft | 487 kts | 20° |
| 2026-05-06 00:12 | -2.76769 | -72.95638 | 30941 ft | 487 kts | 20° |
| 2026-05-06 00:13 | -2.70370 | -72.93390 | 30941 ft | 488 kts | 20° |
| 2026-05-06 00:13 | -2.63963 | -72.91140 | 30945 ft | 488 kts | 20° |
| 2026-05-06 00:14 | -2.57553 | -72.88888 | 30945 ft | 488 kts | 20° |
| 2026-05-06 00:14 | -2.51143 | -72.86637 | 30946 ft | 489 kts | 20° |
| 2026-05-06 00:15 | -2.44727 | -72.84384 | 30947 ft | 489 kts | 20° |
| 2026-05-06 00:15 | -2.38309 | -72.82132 | 30944 ft | 489 kts | 20° |
| 2026-05-06 00:16 | -2.31889 | -72.79879 | 30947 ft | 489 kts | 20° |
| 2026-05-06 00:16 | -2.25467 | -72.77625 | 30945 ft | 489 kts | 20° |
| 2026-05-06 00:17 | -2.20128 | -72.75751 | 30944 ft | 489 kts | 20° |
| 2026-05-06 00:17 | -2.13699 | -72.73495 | 30950 ft | 489 kts | 20° |
| 2026-05-06 00:18 | -2.07269 | -72.71238 | 30950 ft | 490 kts | 20° |
| 2026-05-06 00:18 | -1.99798 | -72.68616 | 30951 ft | 490 kts | 20° |
| 2026-05-06 00:19 | -1.94409 | -72.66725 | 30952 ft | 490 kts | 20° |
| 2026-05-06 00:19 | -1.87972 | -72.64466 | 30955 ft | 490 kts | 20° |
| 2026-05-06 00:20 | -1.81527 | -72.62206 | 30951 ft | 491 kts | 20° |
| 2026-05-06 00:20 | -1.75084 | -72.59945 | 30954 ft | 491 kts | 20° |
| 2026-05-06 00:21 | -1.68672 | -72.57696 | 30953 ft | 492 kts | 20° |
| 2026-05-06 00:21 | -1.62216 | -72.55431 | 30952 ft | 492 kts | 20° |
| 2026-05-06 00:22 | -1.55761 | -72.53167 | 30960 ft | 492 kts | 20° |
| 2026-05-06 00:22 | -1.49298 | -72.50901 | 30954 ft | 492 kts | 20° |
| 2026-05-06 00:23 | -1.42838 | -72.48635 | 30962 ft | 492 kts | 20° |
| 2026-05-06 00:23 | -1.36376 | -72.46369 | 30965 ft | 492 kts | 20° |
| 2026-05-06 00:24 | -1.29915 | -72.44104 | 30960 ft | 492 kts | 20° |
| 2026-05-06 00:24 | -1.23454 | -72.41838 | 30959 ft | 492 kts | 20° |
| 2026-05-06 00:25 | -1.16999 | -72.39575 | 30963 ft | 492 kts | 20° |
| 2026-05-06 00:25 | -1.10530 | -72.37307 | 30958 ft | 492 kts | 20° |
| 2026-05-06 00:26 | -1.04070 | -72.35042 | 30970 ft | 492 kts | 20° |
| 2026-05-06 00:26 | -0.97608 | -72.32777 | 30967 ft | 492 kts | 20° |
| 2026-05-06 00:27 | -0.91144 | -72.30511 | 30968 ft | 492 kts | 20° |
| 2026-05-06 00:27 | -0.84687 | -72.28248 | 30968 ft | 492 kts | 20° |
| 2026-05-06 00:28 | -0.78225 | -72.25982 | 30967 ft | 492 kts | 20° |
| 2026-05-06 00:28 | -0.71767 | -72.23718 | 30966 ft | 492 kts | 20° |
| 2026-05-06 00:29 | -0.65345 | -72.21468 | 30968 ft | 492 kts | 20° |
| 2026-05-06 00:29 | -0.58881 | -72.19202 | 30972 ft | 492 kts | 20° |
| 2026-05-06 00:30 | -0.52419 | -72.16937 | 30973 ft | 493 kts | 20° |
| 2026-05-06 00:30 | -0.45945 | -72.14668 | 30968 ft | 493 kts | 20° |
| 2026-05-06 00:31 | -0.39473 | -72.12400 | 30968 ft | 493 kts | 20° |
| 2026-05-06 00:31 | -0.33002 | -72.10132 | 30970 ft | 493 kts | 20° |
| 2026-05-06 00:32 | -0.26530 | -72.07863 | 30975 ft | 493 kts | 20° |
| 2026-05-06 00:32 | -0.20059 | -72.05595 | 30967 ft | 493 kts | 20° |
| 2026-05-06 00:33 | -0.13592 | -72.03329 | 30972 ft | 493 kts | 20° |
| 2026-05-06 00:33 | -0.07126 | -72.01062 | 30967 ft | 492 kts | 20° |
| 2026-05-06 00:34 | -0.00663 | -71.98795 | 30979 ft | 492 kts | 20° |
| 2026-05-06 00:34 | 0.05797 | -71.96524 | 30953 ft | 492 kts | 20° |
| 2026-05-06 00:35 | 0.12257 | -71.94252 | 30970 ft | 492 kts | 20° |
| 2026-05-06 00:35 | 0.18711 | -71.91982 | 30957 ft | 492 kts | 20° |
| 2026-05-06 00:36 | 0.25176 | -71.89708 | 30964 ft | 492 kts | 20° |
| 2026-05-06 00:36 | 0.31641 | -71.87434 | 30959 ft | 493 kts | 20° |
| 2026-05-06 00:37 | 0.38108 | -71.85160 | 30967 ft | 493 kts | 20° |
| 2026-05-06 00:37 | 0.44582 | -71.82883 | 30971 ft | 493 kts | 20° |
| 2026-05-06 00:38 | 0.51057 | -71.80606 | 30955 ft | 493 kts | 20° |
| 2026-05-06 00:38 | 0.57535 | -71.78327 | 30955 ft | 493 kts | 20° |
| 2026-05-06 00:39 | 0.64005 | -71.76052 | 30957 ft | 493 kts | 20° |
| 2026-05-06 00:39 | 0.70480 | -71.73774 | 30966 ft | 493 kts | 20° |
| 2026-05-06 00:40 | 0.76948 | -71.71499 | 30970 ft | 493 kts | 20° |
| 2026-05-06 00:40 | 0.83413 | -71.69225 | 30954 ft | 492 kts | 20° |
| 2026-05-06 00:41 | 0.89869 | -71.66954 | 30956 ft | 492 kts | 20° |
| 2026-05-06 00:41 | 0.96323 | -71.64684 | 30958 ft | 492 kts | 20° |
| 2026-05-06 00:42 | 1.02780 | -71.62412 | 30955 ft | 492 kts | 20° |
| 2026-05-06 00:42 | 1.09200 | -71.60153 | 30965 ft | 493 kts | 20° |
| 2026-05-06 00:43 | 1.15675 | -71.57875 | 30974 ft | 494 kts | 20° |
| 2026-05-06 00:43 | 1.22157 | -71.55594 | 30979 ft | 494 kts | 20° |
| 2026-05-06 00:44 | 1.28690 | -71.53296 | 30973 ft | 495 kts | 20° |
| 2026-05-06 00:44 | 1.35151 | -71.51022 | 30969 ft | 496 kts | 20° |
| 2026-05-06 00:45 | 1.41659 | -71.48732 | 30972 ft | 496 kts | 20° |
| 2026-05-06 00:45 | 1.48162 | -71.46444 | 30986 ft | 495 kts | 20° |
| 2026-05-06 00:46 | 1.54662 | -71.44156 | 30985 ft | 495 kts | 20° |
| 2026-05-06 00:46 | 1.61154 | -71.41871 | 30972 ft | 495 kts | 20° |
| 2026-05-06 00:47 | 1.67646 | -71.39586 | 30984 ft | 494 kts | 20° |
| 2026-05-06 00:47 | 1.74131 | -71.37303 | 30983 ft | 494 kts | 20° |
| 2026-05-06 00:48 | 1.80618 | -71.35020 | 30974 ft | 494 kts | 20° |
| 2026-05-06 00:48 | 1.87102 | -71.32737 | 30971 ft | 494 kts | 20° |
| 2026-05-06 00:49 | 1.93578 | -71.30456 | 30983 ft | 494 kts | 20° |
| 2026-05-06 00:49 | 2.00056 | -71.28175 | 30985 ft | 494 kts | 20° |
| 2026-05-06 00:50 | 2.06537 | -71.25893 | 30971 ft | 494 kts | 20° |
| 2026-05-06 00:50 | 2.13013 | -71.23612 | 30986 ft | 493 kts | 20° |
| 2026-05-06 00:51 | 2.19489 | -71.21332 | 30986 ft | 493 kts | 20° |
| 2026-05-06 00:51 | 2.25965 | -71.19050 | 30986 ft | 493 kts | 20° |
| 2026-05-06 00:52 | 2.32440 | -71.16770 | 30970 ft | 493 kts | 20° |
| 2026-05-06 00:52 | 2.38908 | -71.14491 | 30973 ft | 493 kts | 20° |
| 2026-05-06 00:53 | 2.45378 | -71.12211 | 30984 ft | 493 kts | 20° |
| 2026-05-06 00:53 | 2.51841 | -71.09934 | 30985 ft | 493 kts | 20° |
| 2026-05-06 00:54 | 2.58309 | -71.07654 | 30982 ft | 493 kts | 20° |
| 2026-05-06 00:54 | 2.64726 | -71.05392 | 30976 ft | 493 kts | 20° |
| 2026-05-06 00:55 | 2.71195 | -71.03112 | 30987 ft | 493 kts | 21° |
| 2026-05-06 00:55 | 2.77661 | -71.00832 | 30984 ft | 493 kts | 21° |
| 2026-05-06 00:56 | 2.84126 | -70.98553 | 30984 ft | 493 kts | 21° |
| 2026-05-06 00:56 | 2.90589 | -70.96274 | 30990 ft | 493 kts | 21° |
| 2026-05-06 00:57 | 2.97056 | -70.93993 | 30985 ft | 493 kts | 21° |
| 2026-05-06 00:57 | 3.03516 | -70.91714 | 30989 ft | 492 kts | 21° |
| 2026-05-06 00:58 | 3.09980 | -70.89434 | 30971 ft | 493 kts | 21° |
| 2026-05-06 00:58 | 3.16446 | -70.87153 | 30986 ft | 493 kts | 21° |
| 2026-05-06 00:59 | 3.22911 | -70.84872 | 30982 ft | 493 kts | 21° |
| 2026-05-06 00:59 | 3.29379 | -70.82589 | 30987 ft | 493 kts | 21° |
| 2026-05-06 01:00 | 3.35845 | -70.80307 | 30986 ft | 493 kts | 21° |
| 2026-05-06 01:00 | 3.42314 | -70.78023 | 30990 ft | 493 kts | 21° |
| 2026-05-06 01:01 | 3.48781 | -70.75740 | 30985 ft | 493 kts | 21° |
| 2026-05-06 01:01 | 3.55206 | -70.73471 | 30986 ft | 493 kts | 21° |
| 2026-05-06 01:02 | 3.61666 | -70.71190 | 30985 ft | 493 kts | 21° |
| 2026-05-06 01:02 | 3.68127 | -70.68907 | 30984 ft | 493 kts | 21° |
| 2026-05-06 01:03 | 3.74418 | -70.66684 | 30980 ft | 492 kts | 21° |
| 2026-05-06 01:03 | 3.80882 | -70.64410 | 30980 ft | 492 kts | 21° |
| 2026-05-06 01:04 | 3.87350 | -70.62166 | 30982 ft | 492 kts | 20° |
| 2026-05-06 01:04 | 3.93812 | -70.59927 | 30978 ft | 491 kts | 21° |
| 2026-05-06 01:05 | 4.00271 | -70.57683 | 30979 ft | 491 kts | 21° |
| 2026-05-06 01:05 | 4.06724 | -70.55439 | 30983 ft | 491 kts | 21° |
| 2026-05-06 01:06 | 4.13137 | -70.53207 | 30983 ft | 491 kts | 21° |
| 2026-05-06 01:06 | 4.19590 | -70.50962 | 30984 ft | 491 kts | 21° |
| 2026-05-06 01:07 | 4.26040 | -70.48717 | 30983 ft | 491 kts | 21° |
| 2026-05-06 01:07 | 4.32508 | -70.46466 | 30985 ft | 492 kts | 21° |
| 2026-05-06 01:08 | 4.38974 | -70.44215 | 30984 ft | 492 kts | 21° |
| 2026-05-06 01:08 | 4.45444 | -70.41962 | 30984 ft | 492 kts | 20° |
| 2026-05-06 01:09 | 4.51922 | -70.39706 | 30984 ft | 493 kts | 20° |
| 2026-05-06 01:09 | 4.58401 | -70.37449 | 30984 ft | 493 kts | 20° |
| 2026-05-06 01:10 | 4.64882 | -70.35191 | 30982 ft | 493 kts | 20° |
| 2026-05-06 01:10 | 4.71362 | -70.32909 | 30983 ft | 494 kts | 20° |
| 2026-05-06 01:11 | 4.77835 | -70.30595 | 30985 ft | 494 kts | 20° |
| 2026-05-06 01:11 | 4.84311 | -70.28279 | 30984 ft | 494 kts | 20° |
| 2026-05-06 01:12 | 4.90787 | -70.25968 | 30984 ft | 494 kts | 20° |
| 2026-05-06 01:12 | 4.96169 | -70.24048 | 30981 ft | 494 kts | 20° |
| 2026-05-06 01:13 | 5.02647 | -70.21738 | 30980 ft | 494 kts | 20° |
| 2026-05-06 01:13 | 5.10211 | -70.19040 | 30983 ft | 493 kts | 20° |
| 2026-05-06 01:14 | 5.18814 | -70.15970 | 30981 ft | 493 kts | 20° |
| 2026-05-06 01:14 | 5.25273 | -70.13664 | 30979 ft | 492 kts | 20° |
| 2026-05-06 01:15 | 5.31725 | -70.11361 | 30980 ft | 492 kts | 20° |
| 2026-05-06 01:15 | 5.38175 | -70.09057 | 30981 ft | 492 kts | 20° |
| 2026-05-06 01:16 | 5.44632 | -70.06751 | 30983 ft | 492 kts | 20° |
| 2026-05-06 01:16 | 5.51081 | -70.04447 | 30982 ft | 492 kts | 20° |
| 2026-05-06 01:17 | 5.57534 | -70.02141 | 30978 ft | 492 kts | 20° |
| 2026-05-06 01:17 | 5.63988 | -69.99834 | 30979 ft | 492 kts | 20° |
| 2026-05-06 01:18 | 5.70443 | -69.97526 | 30978 ft | 493 kts | 20° |
| 2026-05-06 01:18 | 5.76898 | -69.95217 | 30979 ft | 493 kts | 20° |
| 2026-05-06 01:19 | 5.83318 | -69.92921 | 30977 ft | 493 kts | 20° |
| 2026-05-06 01:19 | 5.89782 | -69.90608 | 30979 ft | 493 kts | 20° |
| 2026-05-06 01:20 | 5.96244 | -69.88296 | 30974 ft | 493 kts | 20° |
| 2026-05-06 01:20 | 6.02704 | -69.85983 | 30971 ft | 493 kts | 20° |
| 2026-05-06 01:21 | 6.09164 | -69.83670 | 30972 ft | 493 kts | 20° |
| 2026-05-06 01:21 | 6.15628 | -69.81355 | 30972 ft | 493 kts | 20° |
| 2026-05-06 01:22 | 6.22092 | -69.79039 | 30977 ft | 493 kts | 20° |
| 2026-05-06 01:22 | 6.28551 | -69.76724 | 30967 ft | 493 kts | 20° |
| 2026-05-06 01:23 | 6.35014 | -69.74407 | 30969 ft | 493 kts | 20° |
| 2026-05-06 01:23 | 6.41476 | -69.72090 | 30969 ft | 493 kts | 20° |
| 2026-05-06 01:24 | 6.47938 | -69.69772 | 30968 ft | 493 kts | 20° |
| 2026-05-06 01:24 | 6.54369 | -69.67394 | 30966 ft | 493 kts | 21° |
| 2026-05-06 01:25 | 6.60788 | -69.64982 | 30966 ft | 493 kts | 21° |
| 2026-05-06 01:25 | 6.67213 | -69.62573 | 30968 ft | 493 kts | 21° |
| 2026-05-06 01:26 | 6.73641 | -69.60171 | 30969 ft | 493 kts | 21° |
| 2026-05-06 01:26 | 6.80069 | -69.57771 | 30967 ft | 493 kts | 20° |
| 2026-05-06 01:27 | 6.86501 | -69.55369 | 30963 ft | 493 kts | 20° |
| 2026-05-06 01:27 | 6.92934 | -69.52965 | 30965 ft | 493 kts | 20° |